sensor_id;sensor_type;location;lat;lon;timestamp;P1;durP1;ratioP1;P2;durP2;ratioP2
65077;SDS011;51672;51.230;-2.322;2023-01-15T00:03:41;6.30;;;0.65;;
65077;SDS011;51672;51.230;-2.322;2023-01-15T00:07:24;9.02;;;0.73;;
65077;SDS011;51672;51.230;-2.322;2023-01-15T00:11:06;11.10;;;1.20;;
65077;SDS011;51672;51.230;-2.322;2023-01-15T00:14:48;7.70;;;0.85;;
65077;SDS011;51672;51.230;-2.322;2023-01-15T00:18:30;7.13;;;0.95;;
65077;SDS011;51672;51.230;-2.322;2023-01-15T00:27:19;6.25;;;0.65;;
65077;SDS011;51672;51.230;-2.322;2023-01-15T00:31:24;5.95;;;0.82;;
65077;SDS011;51672;51.230;-2.322;2023-01-15T00:35:09;5.30;;;0.53;;
65077;SDS011;51672;51.230;-2.322;2023-01-15T00:38:55;10.38;;;0.70;;
65077;SDS011;51672;51.230;-2.322;2023-01-15T00:42:37;7.93;;;0.60;;
65077;SDS011;51672;51.230;-2.322;2023-01-15T00:46:19;6.18;;;0.50;;
65077;SDS011;51672;51.230;-2.322;2023-01-15T00:50:02;6.47;;;0.60;;
65077;SDS011;51672;51.230;-2.322;2023-01-15T00:53:46;8.50;;;0.47;;
65077;SDS011;51672;51.230;-2.322;2023-01-15T00:57:28;4.55;;;0.57;;
65077;SDS011;51672;51.230;-2.322;2023-01-15T01:01:10;9.30;;;1.10;;
65077;SDS011;51672;51.230;-2.322;2023-01-15T01:04:53;7.10;;;0.60;;
65077;SDS011;51672;51.230;-2.322;2023-01-15T01:08:35;3.72;;;0.47;;
65077;SDS011;51672;51.230;-2.322;2023-01-15T01:12:17;5.63;;;0.60;;
65077;SDS011;51672;51.230;-2.322;2023-01-15T01:16:01;14.95;;;0.60;;
65077;SDS011;51672;51.230;-2.322;2023-01-15T01:19:44;4.40;;;0.50;;
65077;SDS011;51672;51.230;-2.322;2023-01-15T01:23:26;5.43;;;0.50;;
65077;SDS011;51672;51.230;-2.322;2023-01-15T01:27:09;3.30;;;0.40;;
65077;SDS011;51672;51.230;-2.322;2023-01-15T01:30:51;7.15;;;0.50;;
65077;SDS011;51672;51.230;-2.322;2023-01-15T01:34:33;6.05;;;0.40;;
65077;SDS011;51672;51.230;-2.322;2023-01-15T01:38:15;7.33;;;0.40;;
65077;SDS011;51672;51.230;-2.322;2023-01-15T01:41:58;5.45;;;0.43;;
65077;SDS011;51672;51.230;-2.322;2023-01-15T01:45:40;4.78;;;0.57;;
65077;SDS011;51672;51.230;-2.322;2023-01-15T01:49:23;8.40;;;0.50;;
65077;SDS011;51672;51.230;-2.322;2023-01-15T01:53:07;4.90;;;0.52;;
65077;SDS011;51672;51.230;-2.322;2023-01-15T01:56:57;3.63;;;0.50;;
65077;SDS011;51672;51.230;-2.322;2023-01-15T02:00:40;5.55;;;0.47;;
65077;SDS011;51672;51.230;-2.322;2023-01-15T02:04:26;4.27;;;0.50;;
65077;SDS011;51672;51.230;-2.322;2023-01-15T02:08:10;6.10;;;0.55;;
65077;SDS011;51672;51.230;-2.322;2023-01-15T02:11:52;5.07;;;0.70;;
65077;SDS011;51672;51.230;-2.322;2023-01-15T02:15:46;11.00;;;0.70;;
65077;SDS011;51672;51.230;-2.322;2023-01-15T02:27:26;4.53;;;0.40;;
65077;SDS011;51672;51.230;-2.322;2023-01-15T02:31:24;8.02;;;0.93;;
65077;SDS011;51672;51.230;-2.322;2023-01-15T02:35:22;6.68;;;0.65;;
65077;SDS011;51672;51.230;-2.322;2023-01-15T02:39:07;4.65;;;0.47;;
65077;SDS011;51672;51.230;-2.322;2023-01-15T02:42:53;5.93;;;0.63;;
65077;SDS011;51672;51.230;-2.322;2023-01-15T02:46:37;7.75;;;0.80;;
65077;SDS011;51672;51.230;-2.322;2023-01-15T02:50:25;10.10;;;0.77;;
65077;SDS011;51672;51.230;-2.322;2023-01-15T02:54:12;7.43;;;0.60;;
65077;SDS011;51672;51.230;-2.322;2023-01-15T02:57:57;7.63;;;0.55;;
65077;SDS011;51672;51.230;-2.322;2023-01-15T03:01:53;9.57;;;0.63;;
65077;SDS011;51672;51.230;-2.322;2023-01-15T03:05:52;8.03;;;0.60;;
65077;SDS011;51672;51.230;-2.322;2023-01-15T03:09:46;10.77;;;0.70;;
65077;SDS011;51672;51.230;-2.322;2023-01-15T03:13:43;11.60;;;0.73;;
65077;SDS011;51672;51.230;-2.322;2023-01-15T03:17:42;4.90;;;0.50;;
65077;SDS011;51672;51.230;-2.322;2023-01-15T03:25:31;7.35;;;0.65;;
65077;SDS011;51672;51.230;-2.322;2023-01-15T03:29:18;8.82;;;0.80;;
65077;SDS011;51672;51.230;-2.322;2023-01-15T03:33:01;10.57;;;0.63;;
65077;SDS011;51672;51.230;-2.322;2023-01-15T03:36:43;6.30;;;0.57;;
65077;SDS011;51672;51.230;-2.322;2023-01-15T03:40:25;4.32;;;0.50;;
65077;SDS011;51672;51.230;-2.322;2023-01-15T03:48:17;4.78;;;0.80;;
65077;SDS011;51672;51.230;-2.322;2023-01-15T03:56:17;5.03;;;0.70;;
65077;SDS011;51672;51.230;-2.322;2023-01-15T04:00:00;8.47;;;0.60;;
65077;SDS011;51672;51.230;-2.322;2023-01-15T04:03:49;7.30;;;0.60;;
65077;SDS011;51672;51.230;-2.322;2023-01-15T04:07:33;6.03;;;0.43;;
65077;SDS011;51672;51.230;-2.322;2023-01-15T04:11:20;7.30;;;0.40;;
65077;SDS011;51672;51.230;-2.322;2023-01-15T04:15:05;4.78;;;0.60;;
65077;SDS011;51672;51.230;-2.322;2023-01-15T04:18:47;6.80;;;0.50;;
65077;SDS011;51672;51.230;-2.322;2023-01-15T04:22:29;7.87;;;0.50;;
65077;SDS011;51672;51.230;-2.322;2023-01-15T04:26:11;6.55;;;0.57;;
65077;SDS011;51672;51.230;-2.322;2023-01-15T04:29:54;5.00;;;0.40;;
65077;SDS011;51672;51.230;-2.322;2023-01-15T04:33:36;5.30;;;0.45;;
65077;SDS011;51672;51.230;-2.322;2023-01-15T04:37:19;5.00;;;0.40;;
65077;SDS011;51672;51.230;-2.322;2023-01-15T04:41:02;6.88;;;0.40;;
65077;SDS011;51672;51.230;-2.322;2023-01-15T04:45:03;8.30;;;0.63;;
65077;SDS011;51672;51.230;-2.322;2023-01-15T04:48:45;5.67;;;0.50;;
65077;SDS011;51672;51.230;-2.322;2023-01-15T04:52:27;4.38;;;0.47;;
65077;SDS011;51672;51.230;-2.322;2023-01-15T04:56:09;5.35;;;0.50;;
65077;SDS011;51672;51.230;-2.322;2023-01-15T04:59:51;3.30;;;0.70;;
65077;SDS011;51672;51.230;-2.322;2023-01-15T05:03:33;4.63;;;0.70;;
65077;SDS011;51672;51.230;-2.322;2023-01-15T05:07:16;6.47;;;0.65;;
65077;SDS011;51672;51.230;-2.322;2023-01-15T05:11:05;6.38;;;0.43;;
65077;SDS011;51672;51.230;-2.322;2023-01-15T05:14:48;3.47;;;0.30;;
65077;SDS011;51672;51.230;-2.322;2023-01-15T05:18:30;4.43;;;0.40;;
65077;SDS011;51672;51.230;-2.322;2023-01-15T05:22:12;5.00;;;0.47;;
65077;SDS011;51672;51.230;-2.322;2023-01-15T05:25:54;6.70;;;0.50;;
65077;SDS011;51672;51.230;-2.322;2023-01-15T05:29:36;4.60;;;0.47;;
65077;SDS011;51672;51.230;-2.322;2023-01-15T05:33:18;11.15;;;0.60;;
65077;SDS011;51672;51.230;-2.322;2023-01-15T05:37:00;7.70;;;0.40;;
65077;SDS011;51672;51.230;-2.322;2023-01-15T05:40:42;3.85;;;0.40;;
65077;SDS011;51672;51.230;-2.322;2023-01-15T05:44:25;7.55;;;0.47;;
65077;SDS011;51672;51.230;-2.322;2023-01-15T05:48:08;3.85;;;0.50;;
65077;SDS011;51672;51.230;-2.322;2023-01-15T05:51:50;6.37;;;0.40;;
65077;SDS011;51672;51.230;-2.322;2023-01-15T05:55:33;6.25;;;0.52;;
65077;SDS011;51672;51.230;-2.322;2023-01-15T05:59:17;7.65;;;0.50;;
65077;SDS011;51672;51.230;-2.322;2023-01-15T06:03:00;6.87;;;0.50;;
65077;SDS011;51672;51.230;-2.322;2023-01-15T06:06:43;8.68;;;0.40;;
65077;SDS011;51672;51.230;-2.322;2023-01-15T06:10:25;11.43;;;0.80;;
65077;SDS011;51672;51.230;-2.322;2023-01-15T06:14:07;7.27;;;0.70;;
65077;SDS011;51672;51.230;-2.322;2023-01-15T06:17:50;8.02;;;0.70;;
65077;SDS011;51672;51.230;-2.322;2023-01-15T06:21:33;11.77;;;0.80;;
65077;SDS011;51672;51.230;-2.322;2023-01-15T06:25:15;8.75;;;0.90;;
65077;SDS011;51672;51.230;-2.322;2023-01-15T06:28:57;3.80;;;0.40;;
65077;SDS011;51672;51.230;-2.322;2023-01-15T06:32:40;4.53;;;0.60;;
65077;SDS011;51672;51.230;-2.322;2023-01-15T06:36:22;10.85;;;0.90;;
65077;SDS011;51672;51.230;-2.322;2023-01-15T06:40:08;6.70;;;0.70;;
65077;SDS011;51672;51.230;-2.322;2023-01-15T06:43:50;9.68;;;0.88;;
65077;SDS011;51672;51.230;-2.322;2023-01-15T06:47:51;10.30;;;0.73;;
65077;SDS011;51672;51.230;-2.322;2023-01-15T06:51:33;7.10;;;0.57;;
65077;SDS011;51672;51.230;-2.322;2023-01-15T06:55:15;11.63;;;0.60;;
65077;SDS011;51672;51.230;-2.322;2023-01-15T06:58:58;8.50;;;0.88;;
65077;SDS011;51672;51.230;-2.322;2023-01-15T07:02:43;13.45;;;1.05;;
65077;SDS011;51672;51.230;-2.322;2023-01-15T07:06:25;6.73;;;1.00;;
65077;SDS011;51672;51.230;-2.322;2023-01-15T07:10:07;12.35;;;1.08;;
65077;SDS011;51672;51.230;-2.322;2023-01-15T07:13:50;7.85;;;1.02;;
65077;SDS011;51672;51.230;-2.322;2023-01-15T07:17:48;11.70;;;1.00;;
65077;SDS011;51672;51.230;-2.322;2023-01-15T07:21:39;8.00;;;1.00;;
65077;SDS011;51672;51.230;-2.322;2023-01-15T07:25:21;10.88;;;0.65;;
65077;SDS011;51672;51.230;-2.322;2023-01-15T07:29:03;6.83;;;0.57;;
65077;SDS011;51672;51.230;-2.322;2023-01-15T07:32:48;9.13;;;1.00;;
65077;SDS011;51672;51.230;-2.322;2023-01-15T07:36:30;8.52;;;1.30;;
65077;SDS011;51672;51.230;-2.322;2023-01-15T07:40:12;10.07;;;0.93;;
65077;SDS011;51672;51.230;-2.322;2023-01-15T07:43:55;10.17;;;1.00;;
65077;SDS011;51672;51.230;-2.322;2023-01-15T07:47:55;11.18;;;0.88;;
65077;SDS011;51672;51.230;-2.322;2023-01-15T07:51:56;11.27;;;1.05;;
65077;SDS011;51672;51.230;-2.322;2023-01-15T07:55:38;10.57;;;1.00;;
65077;SDS011;51672;51.230;-2.322;2023-01-15T07:59:20;12.43;;;0.90;;
65077;SDS011;51672;51.230;-2.322;2023-01-15T08:03:05;13.00;;;1.00;;
65077;SDS011;51672;51.230;-2.322;2023-01-15T08:06:47;8.30;;;0.70;;
65077;SDS011;51672;51.230;-2.322;2023-01-15T08:10:29;9.68;;;1.20;;
65077;SDS011;51672;51.230;-2.322;2023-01-15T08:14:11;13.10;;;0.90;;
65077;SDS011;51672;51.230;-2.322;2023-01-15T08:18:12;5.78;;;1.15;;
65077;SDS011;51672;51.230;-2.322;2023-01-15T08:21:57;9.77;;;1.10;;
65077;SDS011;51672;51.230;-2.322;2023-01-15T08:25:43;7.43;;;0.68;;
65077;SDS011;51672;51.230;-2.322;2023-01-15T08:29:25;11.85;;;0.98;;
65077;SDS011;51672;51.230;-2.322;2023-01-15T08:33:08;10.23;;;1.43;;
65077;SDS011;51672;51.230;-2.322;2023-01-15T08:37:16;7.88;;;0.82;;
65077;SDS011;51672;51.230;-2.322;2023-01-15T08:41:00;7.47;;;0.73;;
65077;SDS011;51672;51.230;-2.322;2023-01-15T08:45:08;7.73;;;0.70;;
65077;SDS011;51672;51.230;-2.322;2023-01-15T08:48:51;7.63;;;1.33;;
65077;SDS011;51672;51.230;-2.322;2023-01-15T08:52:54;12.27;;;1.92;;
65077;SDS011;51672;51.230;-2.322;2023-01-15T09:00:54;14.20;;;1.70;;
65077;SDS011;51672;51.230;-2.322;2023-01-15T09:08:40;8.30;;;0.85;;
65077;SDS011;51672;51.230;-2.322;2023-01-15T09:16:39;10.00;;;1.08;;
65077;SDS011;51672;51.230;-2.322;2023-01-15T09:20:25;9.20;;;1.30;;
65077;SDS011;51672;51.230;-2.322;2023-01-15T09:24:11;11.90;;;1.20;;
65077;SDS011;51672;51.230;-2.322;2023-01-15T09:27:54;7.63;;;0.95;;
65077;SDS011;51672;51.230;-2.322;2023-01-15T09:31:40;13.93;;;1.23;;
65077;SDS011;51672;51.230;-2.322;2023-01-15T09:43:43;12.73;;;1.48;;
65077;SDS011;51672;51.230;-2.322;2023-01-15T10:09:32;13.50;;;1.25;;
65077;SDS011;51672;51.230;-2.322;2023-01-15T10:18:20;11.15;;;1.67;;
65077;SDS011;51672;51.230;-2.322;2023-01-15T11:23:57;5.88;;;0.70;;
65077;SDS011;51672;51.230;-2.322;2023-01-15T11:31:53;10.60;;;1.07;;
65077;SDS011;51672;51.230;-2.322;2023-01-15T11:49:07;10.00;;;0.88;;
65077;SDS011;51672;51.230;-2.322;2023-01-15T11:53:16;9.43;;;0.60;;
65077;SDS011;51672;51.230;-2.322;2023-01-15T11:57:38;5.43;;;0.70;;
65077;SDS011;51672;51.230;-2.322;2023-01-15T12:58:42;4.63;;;0.90;;
65077;SDS011;51672;51.230;-2.322;2023-01-15T13:24:41;5.60;;;0.65;;
65077;SDS011;51672;51.230;-2.322;2023-01-15T13:47:22;4.70;;;0.75;;
65077;SDS011;51672;51.230;-2.322;2023-01-15T13:56:07;7.50;;;0.67;;
65077;SDS011;51672;51.230;-2.322;2023-01-15T14:08:46;6.95;;;0.50;;
65077;SDS011;51672;51.230;-2.322;2023-01-15T14:29:55;4.70;;;0.80;;
65077;SDS011;51672;51.230;-2.322;2023-01-15T14:34:40;7.80;;;1.20;;
65077;SDS011;51672;51.230;-2.322;2023-01-15T14:42:36;5.25;;;0.73;;
65077;SDS011;51672;51.230;-2.322;2023-01-15T14:47:10;5.20;;;0.70;;
65077;SDS011;51672;51.230;-2.322;2023-01-15T14:55:47;7.03;;;0.80;;
65077;SDS011;51672;51.230;-2.322;2023-01-15T15:00:17;10.43;;;1.05;;
65077;SDS011;51672;51.230;-2.322;2023-01-15T15:17:12;5.55;;;0.90;;
65077;SDS011;51672;51.230;-2.322;2023-01-15T15:30:01;6.13;;;1.10;;
65077;SDS011;51672;51.230;-2.322;2023-01-15T15:38:50;7.50;;;1.60;;
65077;SDS011;51672;51.230;-2.322;2023-01-15T16:27:02;8.07;;;1.25;;
65077;SDS011;51672;51.230;-2.322;2023-01-15T16:35:57;15.87;;;1.83;;
65077;SDS011;51672;51.230;-2.322;2023-01-15T16:39:44;11.80;;;1.95;;
65077;SDS011;51672;51.230;-2.322;2023-01-15T16:43:27;14.90;;;1.33;;
65077;SDS011;51672;51.230;-2.322;2023-01-15T16:51:23;7.70;;;1.52;;
65077;SDS011;51672;51.230;-2.322;2023-01-15T16:59:17;9.02;;;1.23;;
65077;SDS011;51672;51.230;-2.322;2023-01-15T17:03:10;7.57;;;1.00;;
65077;SDS011;51672;51.230;-2.322;2023-01-15T17:06:54;6.78;;;0.98;;
65077;SDS011;51672;51.230;-2.322;2023-01-15T17:11:20;10.38;;;1.95;;
65077;SDS011;51672;51.230;-2.322;2023-01-15T17:18:58;8.70;;;1.23;;
65077;SDS011;51672;51.230;-2.322;2023-01-15T17:22:41;8.88;;;1.30;;
65077;SDS011;51672;51.230;-2.322;2023-01-15T17:26:27;6.90;;;1.03;;
65077;SDS011;51672;51.230;-2.322;2023-01-15T17:30:10;9.60;;;1.20;;
65077;SDS011;51672;51.230;-2.322;2023-01-15T17:33:54;14.52;;;1.42;;
65077;SDS011;51672;51.230;-2.322;2023-01-15T17:37:37;7.07;;;1.65;;
65077;SDS011;51672;51.230;-2.322;2023-01-15T17:41:20;8.73;;;1.23;;
65077;SDS011;51672;51.230;-2.322;2023-01-15T17:45:03;10.63;;;1.23;;
65077;SDS011;51672;51.230;-2.322;2023-01-15T17:48:45;10.73;;;1.70;;
65077;SDS011;51672;51.230;-2.322;2023-01-15T17:52:27;14.60;;;2.07;;
65077;SDS011;51672;51.230;-2.322;2023-01-15T17:56:09;15.15;;;1.50;;
65077;SDS011;51672;51.230;-2.322;2023-01-15T18:00:10;12.32;;;1.10;;
65077;SDS011;51672;51.230;-2.322;2023-01-15T18:08:34;15.10;;;1.58;;
65077;SDS011;51672;51.230;-2.322;2023-01-15T18:12:17;13.65;;;1.55;;
65077;SDS011;51672;51.230;-2.322;2023-01-15T18:15:59;10.27;;;1.27;;
65077;SDS011;51672;51.230;-2.322;2023-01-15T18:19:41;13.50;;;1.40;;
65077;SDS011;51672;51.230;-2.322;2023-01-15T18:23:23;14.45;;;1.50;;
65077;SDS011;51672;51.230;-2.322;2023-01-15T18:27:06;18.38;;;1.70;;
65077;SDS011;51672;51.230;-2.322;2023-01-15T18:30:48;9.40;;;1.63;;
65077;SDS011;51672;51.230;-2.322;2023-01-15T18:34:31;12.38;;;1.98;;
65077;SDS011;51672;51.230;-2.322;2023-01-15T18:38:41;20.08;;;2.20;;
65077;SDS011;51672;51.230;-2.322;2023-01-15T18:42:24;11.63;;;2.30;;
65077;SDS011;51672;51.230;-2.322;2023-01-15T18:46:24;15.63;;;1.60;;
65077;SDS011;51672;51.230;-2.322;2023-01-15T18:50:25;13.90;;;1.70;;
65077;SDS011;51672;51.230;-2.322;2023-01-15T18:54:07;12.63;;;1.50;;
65077;SDS011;51672;51.230;-2.322;2023-01-15T18:57:52;11.23;;;2.00;;
65077;SDS011;51672;51.230;-2.322;2023-01-15T19:01:35;12.82;;;2.08;;
65077;SDS011;51672;51.230;-2.322;2023-01-15T19:05:18;15.55;;;2.05;;
65077;SDS011;51672;51.230;-2.322;2023-01-15T19:09:00;10.97;;;1.63;;
65077;SDS011;51672;51.230;-2.322;2023-01-15T19:12:51;8.88;;;1.75;;
65077;SDS011;51672;51.230;-2.322;2023-01-15T19:16:33;12.07;;;1.83;;
65077;SDS011;51672;51.230;-2.322;2023-01-15T19:20:34;14.27;;;1.80;;
65077;SDS011;51672;51.230;-2.322;2023-01-15T19:24:18;9.43;;;1.73;;
65077;SDS011;51672;51.230;-2.322;2023-01-15T19:28:00;10.85;;;1.48;;
65077;SDS011;51672;51.230;-2.322;2023-01-15T19:31:43;12.20;;;2.00;;
65077;SDS011;51672;51.230;-2.322;2023-01-15T19:35:25;11.60;;;1.67;;
65077;SDS011;51672;51.230;-2.322;2023-01-15T19:39:08;13.00;;;2.17;;
65077;SDS011;51672;51.230;-2.322;2023-01-15T19:42:51;12.68;;;2.15;;
65077;SDS011;51672;51.230;-2.322;2023-01-15T19:46:52;8.17;;;1.67;;
65077;SDS011;51672;51.230;-2.322;2023-01-15T19:51:02;12.10;;;1.77;;
65077;SDS011;51672;51.230;-2.322;2023-01-15T19:54:54;12.55;;;2.17;;
65077;SDS011;51672;51.230;-2.322;2023-01-15T19:58:36;15.00;;;2.57;;
65077;SDS011;51672;51.230;-2.322;2023-01-15T20:02:19;8.38;;;2.17;;
65077;SDS011;51672;51.230;-2.322;2023-01-15T20:06:01;10.05;;;2.25;;
65077;SDS011;51672;51.230;-2.322;2023-01-15T20:09:48;8.27;;;2.53;;
65077;SDS011;51672;51.230;-2.322;2023-01-15T20:13:30;12.53;;;2.93;;
65077;SDS011;51672;51.230;-2.322;2023-01-15T20:17:31;12.70;;;2.88;;
65077;SDS011;51672;51.230;-2.322;2023-01-15T20:21:13;15.52;;;2.63;;
65077;SDS011;51672;51.230;-2.322;2023-01-15T20:24:56;7.60;;;2.70;;
65077;SDS011;51672;51.230;-2.322;2023-01-15T20:28:39;11.60;;;2.90;;
65077;SDS011;51672;51.230;-2.322;2023-01-15T20:32:22;7.25;;;2.58;;
65077;SDS011;51672;51.230;-2.322;2023-01-15T20:36:05;10.20;;;2.53;;
65077;SDS011;51672;51.230;-2.322;2023-01-15T20:39:47;8.85;;;2.25;;
65077;SDS011;51672;51.230;-2.322;2023-01-15T20:43:30;13.38;;;3.83;;
65077;SDS011;51672;51.230;-2.322;2023-01-15T20:47:31;19.27;;;3.45;;
65077;SDS011;51672;51.230;-2.322;2023-01-15T20:51:32;12.07;;;3.20;;
65077;SDS011;51672;51.230;-2.322;2023-01-15T20:55:14;13.98;;;3.75;;
65077;SDS011;51672;51.230;-2.322;2023-01-15T20:58:57;9.98;;;3.72;;
65077;SDS011;51672;51.230;-2.322;2023-01-15T21:02:39;15.27;;;4.37;;
65077;SDS011;51672;51.230;-2.322;2023-01-15T21:06:22;9.65;;;3.95;;
65077;SDS011;51672;51.230;-2.322;2023-01-15T21:10:04;11.55;;;4.63;;
65077;SDS011;51672;51.230;-2.322;2023-01-15T21:13:49;13.13;;;4.20;;
65077;SDS011;51672;51.230;-2.322;2023-01-15T21:17:31;12.68;;;4.45;;
65077;SDS011;51672;51.230;-2.322;2023-01-15T21:21:14;12.85;;;5.45;;
65077;SDS011;51672;51.230;-2.322;2023-01-15T21:25:02;16.35;;;5.78;;
65077;SDS011;51672;51.230;-2.322;2023-01-15T21:28:46;22.07;;;6.23;;
65077;SDS011;51672;51.230;-2.322;2023-01-15T21:32:28;13.35;;;5.30;;
65077;SDS011;51672;51.230;-2.322;2023-01-15T21:36:11;16.20;;;5.03;;
65077;SDS011;51672;51.230;-2.322;2023-01-15T21:39:54;17.90;;;5.30;;
65077;SDS011;51672;51.230;-2.322;2023-01-15T21:43:36;15.38;;;3.63;;
65077;SDS011;51672;51.230;-2.322;2023-01-15T21:47:37;16.00;;;3.20;;
65077;SDS011;51672;51.230;-2.322;2023-01-15T21:51:19;12.80;;;3.20;;
65077;SDS011;51672;51.230;-2.322;2023-01-15T21:55:01;10.40;;;2.40;;
65077;SDS011;51672;51.230;-2.322;2023-01-15T21:58:43;18.98;;;2.95;;
65077;SDS011;51672;51.230;-2.322;2023-01-15T22:02:25;14.30;;;3.10;;
65077;SDS011;51672;51.230;-2.322;2023-01-15T22:06:10;14.33;;;2.90;;
65077;SDS011;51672;51.230;-2.322;2023-01-15T22:09:52;15.68;;;3.00;;
65077;SDS011;51672;51.230;-2.322;2023-01-15T22:13:34;13.02;;;2.40;;
65077;SDS011;51672;51.230;-2.322;2023-01-15T22:17:17;10.27;;;2.17;;
65077;SDS011;51672;51.230;-2.322;2023-01-15T22:21:03;20.13;;;3.38;;
65077;SDS011;51672;51.230;-2.322;2023-01-15T22:24:47;8.98;;;2.70;;
65077;SDS011;51672;51.230;-2.322;2023-01-15T22:28:29;17.60;;;3.43;;
65077;SDS011;51672;51.230;-2.322;2023-01-15T22:32:11;19.23;;;3.20;;
65077;SDS011;51672;51.230;-2.322;2023-01-15T22:35:55;10.07;;;3.13;;
65077;SDS011;51672;51.230;-2.322;2023-01-15T22:39:40;14.75;;;2.72;;
65077;SDS011;51672;51.230;-2.322;2023-01-15T22:43:22;12.67;;;2.27;;
65077;SDS011;51672;51.230;-2.322;2023-01-15T22:47:05;11.18;;;1.80;;
65077;SDS011;51672;51.230;-2.322;2023-01-15T22:50:47;10.68;;;1.90;;
65077;SDS011;51672;51.230;-2.322;2023-01-15T22:54:29;9.33;;;1.43;;
65077;SDS011;51672;51.230;-2.322;2023-01-15T22:58:12;8.27;;;1.50;;
65077;SDS011;51672;51.230;-2.322;2023-01-15T23:01:57;10.48;;;1.65;;
65077;SDS011;51672;51.230;-2.322;2023-01-15T23:05:43;12.40;;;1.83;;
65077;SDS011;51672;51.230;-2.322;2023-01-15T23:09:25;11.75;;;1.63;;
65077;SDS011;51672;51.230;-2.322;2023-01-15T23:13:07;9.93;;;1.42;;
65077;SDS011;51672;51.230;-2.322;2023-01-15T23:16:49;10.98;;;1.77;;
65077;SDS011;51672;51.230;-2.322;2023-01-15T23:20:31;10.93;;;1.40;;
65077;SDS011;51672;51.230;-2.322;2023-01-15T23:24:14;14.00;;;1.33;;
65077;SDS011;51672;51.230;-2.322;2023-01-15T23:27:56;12.38;;;1.50;;
65077;SDS011;51672;51.230;-2.322;2023-01-15T23:31:38;12.47;;;1.63;;
65077;SDS011;51672;51.230;-2.322;2023-01-15T23:35:20;7.72;;;1.42;;
65077;SDS011;51672;51.230;-2.322;2023-01-15T23:39:04;13.60;;;2.17;;
65077;SDS011;51672;51.230;-2.322;2023-01-15T23:42:46;11.77;;;2.00;;
65077;SDS011;51672;51.230;-2.322;2023-01-15T23:46:46;9.45;;;1.70;;
65077;SDS011;51672;51.230;-2.322;2023-01-15T23:50:29;14.55;;;2.72;;
65077;SDS011;51672;51.230;-2.322;2023-01-15T23:54:11;11.25;;;1.63;;
65077;SDS011;51672;51.230;-2.322;2023-01-15T23:57:53;18.00;;;2.10;;
